createdAt,value
2023-03-21T00:01:53.291Z,5.43
2023-03-21T00:04:22.693Z,8.52
2023-03-21T00:06:52.774Z,7.80
2023-03-21T00:09:21.434Z,7.95
2023-03-21T00:11:49.855Z,5.13
2023-03-21T00:14:20.130Z,5.55
2023-03-21T00:16:50.620Z,4.70
2023-03-21T00:19:20.911Z,5.78
2023-03-21T00:22:08.690Z,5.88
2023-03-21T00:24:39.375Z,5.03
2023-03-21T00:27:34.624Z,6.78
2023-03-21T00:29:57.114Z,7.13
2023-03-21T00:32:25.828Z,5.32
2023-03-21T00:35:11.776Z,5.72
2023-03-21T00:37:43.156Z,6.82
2023-03-21T00:40:26.699Z,5.45
2023-03-21T00:42:59.517Z,5.70
2023-03-21T00:45:28.114Z,4.15
2023-03-21T00:47:56.738Z,4.00
2023-03-21T00:50:25.766Z,5.25
2023-03-21T00:52:54.210Z,4.13
2023-03-21T00:55:24.245Z,4.80
2023-03-21T00:58:01.184Z,3.60
2023-03-21T01:00:33.067Z,4.45
2023-03-21T01:03:17.668Z,5.25
2023-03-21T01:06:05.528Z,5.15
2023-03-21T01:08:50.578Z,5.30
2023-03-21T01:11:24.905Z,5.22
2023-03-21T01:13:59.837Z,3.95
2023-03-21T01:16:33.529Z,5.45
2023-03-21T01:19:05.234Z,4.22
2023-03-21T01:21:36.194Z,4.60
2023-03-21T01:24:04.897Z,5.30
2023-03-21T01:26:34.879Z,4.38
2023-03-21T01:29:03.336Z,5.45
2023-03-21T01:31:31.873Z,4.45
2023-03-21T01:34:00.368Z,5.22
2023-03-21T01:36:28.998Z,4.38
2023-03-21T01:39:03.016Z,6.03
2023-03-21T01:41:42.995Z,5.32
2023-03-21T01:44:27.410Z,7.95
2023-03-21T01:47:11.200Z,7.20
2023-03-21T01:50:02.969Z,5.60
2023-03-21T01:52:41.686Z,5.45
2023-03-21T01:55:20.122Z,6.13
2023-03-21T01:58:05.881Z,7.75
2023-03-21T02:01:11.715Z,5.78
2023-03-21T02:03:51.400Z,6.00
2023-03-21T02:06:47.275Z,8.18
2023-03-21T02:09:49.822Z,6.70
2023-03-21T02:12:22.166Z,5.80
2023-03-21T02:14:54.149Z,7.18
2023-03-21T02:18:04.210Z,7.90
2023-03-21T02:21:05.888Z,6.15
2023-03-21T02:24:23.929Z,6.05
2023-03-21T02:27:07.179Z,5.72
2023-03-21T02:29:58.896Z,9.48
2023-03-21T02:32:41.450Z,10.93
2023-03-21T02:35:29.882Z,6.70
2023-03-21T02:38:03.876Z,6.65
2023-03-21T02:40:39.288Z,8.13
2023-03-21T02:43:23.023Z,6.05
2023-03-21T02:45:55.749Z,6.90
2023-03-21T02:48:41.132Z,5.18
2023-03-21T02:51:21.563Z,5.93
2023-03-21T02:54:20.000Z,4.68
2023-03-21T02:56:47.169Z,4.63
2023-03-21T02:59:17.503Z,6.05
2023-03-21T03:01:46.269Z,4.75
2023-03-21T03:04:22.792Z,5.25
2023-03-21T03:07:12.355Z,6.55
2023-03-21T03:10:08.433Z,4.95
2023-03-21T03:12:48.994Z,5.32
2023-03-21T03:15:29.736Z,4.70
2023-03-21T03:18:06.699Z,5.50
2023-03-21T03:20:47.219Z,5.60
2023-03-21T03:23:26.309Z,5.25
2023-03-21T03:26:01.351Z,5.07
2023-03-21T03:28:34.132Z,4.78
2023-03-21T03:31:09.630Z,5.15
2023-03-21T03:33:49.308Z,4.13
2023-03-21T03:36:30.853Z,4.10
2023-03-21T03:39:04.417Z,5.47
2023-03-21T03:42:02.905Z,5.55
2023-03-21T03:44:32.113Z,5.32
2023-03-21T03:47:09.679Z,4.45
2023-03-21T03:49:44.674Z,4.25
2023-03-21T03:52:20.293Z,5.15
2023-03-21T03:54:55.673Z,5.20
2023-03-21T03:57:28.740Z,4.22
2023-03-21T03:59:58.018Z,4.28
2023-03-21T04:02:46.003Z,5.72
2023-03-21T04:05:21.407Z,4.72
2023-03-21T04:07:51.278Z,4.95
2023-03-21T04:10:23.253Z,5.97
2023-03-21T04:12:53.261Z,3.95
2023-03-21T04:15:42.019Z,4.70
2023-03-21T04:18:15.677Z,5.17
2023-03-21T04:20:45.932Z,5.18
2023-03-21T04:23:14.882Z,5.50
2023-03-21T04:25:56.010Z,4.68
2023-03-21T04:28:31.926Z,4.38
2023-03-21T04:31:16.150Z,4.47
2023-03-21T04:33:55.996Z,5.82
2023-03-21T04:36:33.274Z,5.80
2023-03-21T04:39:04.725Z,4.53
2023-03-21T04:41:33.726Z,5.05
2023-03-21T04:44:04.438Z,7.03
2023-03-21T04:46:33.209Z,4.70
2023-03-21T04:49:02.480Z,7.22
2023-03-21T04:51:30.954Z,6.13
2023-03-21T04:53:59.711Z,6.93
2023-03-21T04:56:32.400Z,8.50
2023-03-21T04:59:04.840Z,5.28
2023-03-21T05:01:33.986Z,4.55
2023-03-21T05:04:03.620Z,5.97
2023-03-21T05:06:36.459Z,4.85
2023-03-21T05:09:07.039Z,4.82
2023-03-21T05:11:38.955Z,3.72
2023-03-21T05:14:11.216Z,5.57
2023-03-21T05:16:48.451Z,5.20
2023-03-21T05:19:19.289Z,4.63
2023-03-21T05:21:49.410Z,5.00
2023-03-21T05:24:22.880Z,5.07
2023-03-21T05:26:52.854Z,6.13
2023-03-21T05:29:26.258Z,4.55
2023-03-21T05:32:01.237Z,4.53
2023-03-21T05:34:30.844Z,5.22
2023-03-21T05:36:59.312Z,4.03
2023-03-21T05:39:36.889Z,4.55
2023-03-21T05:44:41.459Z,5.15
2023-03-21T05:47:12.990Z,4.93
2023-03-21T05:49:47.117Z,5.93
2023-03-21T05:52:16.623Z,4.55
2023-03-21T05:54:46.684Z,6.28
2023-03-21T05:57:15.683Z,5.25
2023-03-21T06:00:09.187Z,4.97
2023-03-21T06:02:52.846Z,4.75
2023-03-21T06:05:39.688Z,6.35
2023-03-21T06:10:42.810Z,6.40
2023-03-21T06:13:11.330Z,5.28
2023-03-21T06:15:41.220Z,6.20
2023-03-21T06:18:21.556Z,5.95
2023-03-21T06:21:02.180Z,5.07
2023-03-21T06:23:30.618Z,6.05
2023-03-21T06:25:59.733Z,5.15
2023-03-21T06:28:28.877Z,5.80
2023-03-21T06:30:58.745Z,4.90
2023-03-21T06:33:28.736Z,5.93
2023-03-21T06:35:59.378Z,6.32
2023-03-21T06:38:27.917Z,5.82
2023-03-21T06:40:56.396Z,6.75
2023-03-21T06:43:26.922Z,6.15
2023-03-21T06:45:55.524Z,5.30
2023-03-21T06:48:26.051Z,7.30
2023-03-21T06:50:56.300Z,5.00
2023-03-21T06:53:28.046Z,7.25
2023-03-21T06:56:15.887Z,7.93
2023-03-21T06:58:46.609Z,6.05
2023-03-21T07:01:27.598Z,7.82
2023-03-21T07:04:05.021Z,8.50
2023-03-21T07:06:34.254Z,5.93
2023-03-21T07:09:02.971Z,7.70
2023-03-21T07:11:33.912Z,7.10
2023-03-21T07:14:03.203Z,10.80
2023-03-21T07:16:31.714Z,8.75
2023-03-21T07:19:00.249Z,6.70
2023-03-21T07:21:30.418Z,6.95
2023-03-21T07:23:58.844Z,6.13
2023-03-21T07:26:27.345Z,6.38
2023-03-21T07:28:55.844Z,7.03
2023-03-21T07:31:26.088Z,8.90
2023-03-21T07:33:54.666Z,7.03
2023-03-21T07:36:24.581Z,7.70
2023-03-21T07:38:54.452Z,7.78
2023-03-21T07:41:25.742Z,5.95
2023-03-21T07:43:54.262Z,8.43
2023-03-21T07:46:22.732Z,6.85
2023-03-21T07:48:51.253Z,9.57
2023-03-21T07:51:19.665Z,6.65
2023-03-21T07:53:48.771Z,6.80
2023-03-21T07:56:18.611Z,6.95
2023-03-21T07:58:47.048Z,8.82
2023-03-21T08:01:15.658Z,7.68
2023-03-21T08:03:44.237Z,9.98
2023-03-21T08:06:12.742Z,8.20
2023-03-21T08:08:41.119Z,7.47
2023-03-21T08:11:09.473Z,8.98
2023-03-21T08:13:39.496Z,8.32
2023-03-21T08:16:09.055Z,8.52
2023-03-21T08:18:37.382Z,7.30
2023-03-21T08:21:07.719Z,7.28
2023-03-21T08:23:37.252Z,7.53
2023-03-21T08:26:05.898Z,6.95
2023-03-21T08:28:34.530Z,10.00
2023-03-21T08:31:08.766Z,8.27
2023-03-21T08:33:37.268Z,9.38
2023-03-21T08:36:07.199Z,9.95
2023-03-21T08:38:35.955Z,9.20
2023-03-21T08:41:04.590Z,9.02
2023-03-21T08:43:32.921Z,10.23
2023-03-21T08:46:04.086Z,7.82
2023-03-21T08:48:33.868Z,8.75
2023-03-21T08:51:02.355Z,10.75
2023-03-21T08:53:30.662Z,8.63
2023-03-21T08:55:58.993Z,8.20
2023-03-21T08:58:28.392Z,10.05
2023-03-21T09:00:56.804Z,8.13
2023-03-21T09:03:27.286Z,7.32
2023-03-21T09:05:58.933Z,7.60
2023-03-21T09:08:27.542Z,8.50
2023-03-21T09:10:56.534Z,7.85
2023-03-21T09:13:25.662Z,9.10
2023-03-21T09:15:54.143Z,9.68
2023-03-21T09:18:42.518Z,7.80
2023-03-21T09:21:13.364Z,9.95
2023-03-21T09:23:42.247Z,8.13
2023-03-21T09:26:10.787Z,8.98
2023-03-21T09:28:39.272Z,9.43
2023-03-21T09:31:12.273Z,11.43
2023-03-21T09:33:41.339Z,7.75
2023-03-21T09:36:14.209Z,11.68
2023-03-21T09:38:43.129Z,10.30
2023-03-21T09:41:28.275Z,12.05
2023-03-21T09:44:11.918Z,9.65
2023-03-21T09:46:46.755Z,10.57
2023-03-21T09:49:20.846Z,11.35
2023-03-21T09:51:53.651Z,10.82
2023-03-21T09:54:27.392Z,8.82
2023-03-21T09:57:01.059Z,9.45
2023-03-21T09:59:36.597Z,9.40
2023-03-21T10:02:14.736Z,8.43
2023-03-21T10:04:44.128Z,9.55
2023-03-21T10:07:18.069Z,9.07
2023-03-21T10:09:47.813Z,10.18
2023-03-21T10:12:30.534Z,7.55
2023-03-21T10:15:01.922Z,7.95
2023-03-21T10:17:34.259Z,8.85
2023-03-21T10:20:13.250Z,8.23
2023-03-21T10:22:44.641Z,8.02
2023-03-21T10:25:16.957Z,10.07
2023-03-21T10:27:46.683Z,11.77
2023-03-21T10:30:26.395Z,9.57
2023-03-21T10:32:59.532Z,8.60
2023-03-21T10:35:28.280Z,8.50
2023-03-21T10:37:57.978Z,9.68
2023-03-21T10:40:26.272Z,9.25
2023-03-21T10:42:56.525Z,8.48
2023-03-21T10:45:25.504Z,7.43
2023-03-21T10:47:55.393Z,7.47
2023-03-21T10:50:26.737Z,7.78
2023-03-21T10:53:00.947Z,6.90
2023-03-21T10:55:31.981Z,6.47
2023-03-21T10:58:07.652Z,6.57
2023-03-21T11:00:41.276Z,8.32
2023-03-21T11:03:22.855Z,7.77
2023-03-21T11:05:56.775Z,6.63
2023-03-21T11:08:27.349Z,7.60
2023-03-21T11:11:02.565Z,6.20
2023-03-21T11:13:37.673Z,7.30
2023-03-21T11:16:09.079Z,8.73
2023-03-21T11:18:42.375Z,9.77
2023-03-21T11:21:12.574Z,7.93
2023-03-21T11:23:46.858Z,7.75
2023-03-21T11:26:24.012Z,8.98
2023-03-21T11:28:53.016Z,7.18
2023-03-21T11:31:24.753Z,6.78
2023-03-21T11:33:56.854Z,7.35
2023-03-21T11:36:34.894Z,8.30
2023-03-21T11:39:16.232Z,6.70
2023-03-21T11:41:52.040Z,7.50
2023-03-21T11:44:30.820Z,6.18
2023-03-21T11:46:59.826Z,6.13
2023-03-21T11:49:28.489Z,6.05
2023-03-21T11:52:07.472Z,5.95
2023-03-21T11:54:48.255Z,6.20
2023-03-21T11:57:29.597Z,5.50
2023-03-21T12:00:04.189Z,7.45
2023-03-21T12:03:07.326Z,7.53
2023-03-21T12:05:38.239Z,5.95
2023-03-21T12:08:14.040Z,5.85
2023-03-21T12:10:54.107Z,7.95
2023-03-21T12:13:38.026Z,5.50
2023-03-21T12:16:21.002Z,6.68
2023-03-21T12:19:09.539Z,6.10
2023-03-21T12:21:46.743Z,5.30
2023-03-21T12:24:19.742Z,5.57
2023-03-21T12:26:59.086Z,5.75
2023-03-21T12:29:41.769Z,6.68
2023-03-21T12:32:22.749Z,9.82
2023-03-21T12:35:10.493Z,6.95
2023-03-21T12:37:46.886Z,8.25
2023-03-21T12:40:28.097Z,7.80
2023-03-21T12:43:13.394Z,6.57
2023-03-21T12:45:47.683Z,7.82
2023-03-21T12:48:23.550Z,5.78
2023-03-21T12:50:55.431Z,6.40
2023-03-21T12:53:36.926Z,6.45
2023-03-21T12:56:10.406Z,6.07
2023-03-21T12:58:47.372Z,6.68
2023-03-21T13:01:20.430Z,5.72
2023-03-21T13:03:56.529Z,5.05
2023-03-21T13:06:27.391Z,6.88
2023-03-21T13:09:03.512Z,5.78
2023-03-21T13:11:32.805Z,6.50
2023-03-21T13:14:07.254Z,7.03
2023-03-21T13:16:39.061Z,5.60
2023-03-21T13:19:19.269Z,7.22
2023-03-21T13:21:58.357Z,6.10
2023-03-21T13:24:33.704Z,6.07
2023-03-21T13:27:06.913Z,5.75
2023-03-21T13:29:46.066Z,7.00
2023-03-21T13:32:24.211Z,6.50
2023-03-21T13:34:56.820Z,6.75
2023-03-21T13:37:27.595Z,6.57
2023-03-21T13:40:02.167Z,4.53
2023-03-21T13:45:06.443Z,6.55
2023-03-21T13:47:43.747Z,5.10
2023-03-21T13:50:27.655Z,4.47
2023-03-21T13:53:25.195Z,5.88
2023-03-21T13:56:34.218Z,6.60
2023-03-21T13:59:04.645Z,8.15
2023-03-21T14:01:37.921Z,6.78
2023-03-21T14:04:13.336Z,6.90
2023-03-21T14:06:52.179Z,7.05
2023-03-21T14:09:26.366Z,5.50
2023-03-21T14:11:58.724Z,4.50
2023-03-21T14:14:36.384Z,5.03
2023-03-21T14:17:14.180Z,5.78
2023-03-21T14:19:42.598Z,5.07
2023-03-21T14:22:14.165Z,5.03
2023-03-21T14:24:48.628Z,6.25
2023-03-21T14:27:17.125Z,6.07
2023-03-21T14:29:46.663Z,5.40
2023-03-21T14:32:24.613Z,6.38
2023-03-21T14:34:54.360Z,4.75
2023-03-21T14:37:31.522Z,4.82
2023-03-21T14:40:01.670Z,7.35
2023-03-21T14:42:35.402Z,6.22
2023-03-21T14:45:17.876Z,5.17
2023-03-21T14:47:58.530Z,6.13
2023-03-21T14:50:35.712Z,5.00
2023-03-21T14:53:04.399Z,4.88
2023-03-21T14:55:33.028Z,3.95
2023-03-21T14:58:01.757Z,4.57
2023-03-21T15:00:32.220Z,5.43
2023-03-21T15:03:03.081Z,6.20
2023-03-21T15:05:33.980Z,7.03
2023-03-21T15:08:04.364Z,6.20
2023-03-21T15:10:32.826Z,5.07
2023-03-21T15:13:02.912Z,5.82
2023-03-21T15:15:33.651Z,5.32
2023-03-21T15:18:06.642Z,4.82
2023-03-21T15:20:38.495Z,5.72
2023-03-21T15:23:10.760Z,4.55
2023-03-21T15:25:40.677Z,5.03
2023-03-21T15:28:14.901Z,4.03
2023-03-21T15:30:49.975Z,4.05
2023-03-21T15:33:20.626Z,4.20
2023-03-21T15:35:53.962Z,4.85
2023-03-21T15:38:25.292Z,5.68
2023-03-21T15:41:18.521Z,4.68
2023-03-21T15:43:47.694Z,5.68
2023-03-21T15:46:17.650Z,4.97
2023-03-21T15:48:47.357Z,4.47
2023-03-21T15:51:23.076Z,3.97
2023-03-21T15:53:54.329Z,5.45
2023-03-21T15:56:23.122Z,4.28
2023-03-21T15:58:53.611Z,7.00
2023-03-21T16:01:26.294Z,5.10
2023-03-21T16:04:03.135Z,5.32
2023-03-21T16:06:34.118Z,4.78
2023-03-21T16:09:11.659Z,5.28
2023-03-21T16:11:41.872Z,5.07
2023-03-21T16:14:12.011Z,5.43
2023-03-21T16:16:40.850Z,5.22
2023-03-21T16:19:10.557Z,5.50
2023-03-21T16:21:40.743Z,4.38
2023-03-21T16:24:11.522Z,4.53
2023-03-21T16:26:45.127Z,5.38
2023-03-21T16:29:14.891Z,5.07
2023-03-21T16:31:43.725Z,4.60
2023-03-21T16:34:13.535Z,4.63
2023-03-21T16:36:43.408Z,4.65
2023-03-21T16:39:17.793Z,4.07
2023-03-21T16:41:48.932Z,5.30
2023-03-21T16:44:17.438Z,4.85
2023-03-21T16:46:47.092Z,4.50
2023-03-21T16:49:21.642Z,4.00
2023-03-21T16:54:18.301Z,4.65
2023-03-21T16:56:50.508Z,3.60
2023-03-21T16:59:19.043Z,4.00
2023-03-21T17:01:48.538Z,4.03
2023-03-21T17:04:18.391Z,3.90
2023-03-21T17:06:50.360Z,5.22
2023-03-21T17:09:21.096Z,4.07
2023-03-21T17:11:50.028Z,4.57
2023-03-21T17:14:18.825Z,5.13
2023-03-21T17:16:47.294Z,4.30
2023-03-21T17:19:18.069Z,3.80
2023-03-21T17:21:47.951Z,5.07
2023-03-21T17:24:16.810Z,5.15
2023-03-21T17:26:45.620Z,3.70
2023-03-21T17:29:14.917Z,4.38
2023-03-21T17:31:47.212Z,4.90
2023-03-21T17:34:16.191Z,4.85
2023-03-21T17:36:46.654Z,4.88
2023-03-21T17:39:21.173Z,5.97
2023-03-21T17:44:18.003Z,4.95
2023-03-21T17:46:46.647Z,4.70
2023-03-21T17:49:16.931Z,3.67
2023-03-21T17:51:46.943Z,3.65
2023-03-21T17:54:16.885Z,5.82
2023-03-21T17:56:45.340Z,3.88
2023-03-21T17:59:14.761Z,4.50
2023-03-21T18:01:43.827Z,4.97
2023-03-21T18:04:12.370Z,4.20
2023-03-21T18:06:41.489Z,4.10
2023-03-21T18:09:11.664Z,4.05
2023-03-21T18:11:42.029Z,4.53
2023-03-21T18:14:17.166Z,3.78
2023-03-21T18:16:47.062Z,4.22
2023-03-21T18:19:15.759Z,4.00
2023-03-21T18:21:45.289Z,4.47
2023-03-21T18:24:14.847Z,4.15
2023-03-21T18:26:46.191Z,4.68
2023-03-21T18:32:08.177Z,5.22
2023-03-21T18:34:39.440Z,5.47
2023-03-21T18:37:10.016Z,5.05
2023-03-21T18:39:39.828Z,6.43
2023-03-21T18:42:16.694Z,4.07
2023-03-21T18:44:47.883Z,4.68
2023-03-21T18:47:17.246Z,4.57
2023-03-21T18:50:15.826Z,4.15
2023-03-21T18:52:34.706Z,4.20
2023-03-21T18:55:04.766Z,4.30
2023-03-21T18:57:38.251Z,5.38
2023-03-21T19:00:12.932Z,4.30
2023-03-21T19:02:47.087Z,3.78
2023-03-21T19:05:17.705Z,3.88
2023-03-21T19:07:47.887Z,4.20
2023-03-21T19:10:19.738Z,3.75
2023-03-21T19:12:51.580Z,4.07
2023-03-21T19:15:21.797Z,3.95
2023-03-21T19:18:34.049Z,5.22
2023-03-21T19:20:44.295Z,3.92
2023-03-21T19:23:12.788Z,3.78
2023-03-21T19:25:41.401Z,4.03
2023-03-21T19:28:11.438Z,3.80
2023-03-21T19:30:41.326Z,4.18
2023-03-21T19:33:17.380Z,3.95
2023-03-21T19:35:46.562Z,4.40
2023-03-21T19:38:15.091Z,3.70
2023-03-21T19:40:44.126Z,4.72
2023-03-21T19:43:32.222Z,3.80
2023-03-21T19:46:02.054Z,4.60
2023-03-21T19:48:31.022Z,4.40
2023-03-21T19:51:36.367Z,4.45
2023-03-21T19:53:51.127Z,4.30
2023-03-21T19:56:23.068Z,4.03
2023-03-21T19:58:54.679Z,4.00
2023-03-21T20:01:24.020Z,4.28
2023-03-21T20:03:52.709Z,4.72
2023-03-21T20:06:23.842Z,4.90
2023-03-21T20:11:41.971Z,4.85
2023-03-21T20:14:11.808Z,4.10
2023-03-21T20:16:43.228Z,4.65
2023-03-21T20:19:16.060Z,4.63
2023-03-21T20:21:52.238Z,4.15
2023-03-21T20:24:23.224Z,3.83
2023-03-21T20:26:53.633Z,4.80
2023-03-21T20:32:12.445Z,4.47
2023-03-21T20:34:40.902Z,4.30
2023-03-21T20:37:09.732Z,4.47
2023-03-21T20:39:38.300Z,4.10
2023-03-21T20:42:07.144Z,4.32
2023-03-21T20:44:56.878Z,3.83
2023-03-21T20:47:25.697Z,4.38
2023-03-21T20:49:55.146Z,4.80
2023-03-21T20:55:13.317Z,5.00
2023-03-21T20:57:42.379Z,4.43
2023-03-21T21:00:16.760Z,4.25
2023-03-21T21:02:47.443Z,3.83
2023-03-21T21:05:29.276Z,6.05
2023-03-21T21:07:58.920Z,4.50
2023-03-21T21:10:27.747Z,3.85
2023-03-21T21:12:57.098Z,4.38
2023-03-21T21:15:27.168Z,4.47
2023-03-21T21:18:06.691Z,4.55
2023-03-21T21:20:36.465Z,4.78
2023-03-21T21:23:06.126Z,5.32
2023-03-21T21:25:34.999Z,4.65
2023-03-21T21:28:03.980Z,4.30
2023-03-21T21:30:34.402Z,4.50
2023-03-21T21:33:02.890Z,4.45
2023-03-21T21:35:33.503Z,4.82
2023-03-21T21:38:02.024Z,4.55
2023-03-21T21:40:30.595Z,4.72
2023-03-21T21:43:03.446Z,4.55
2023-03-21T21:45:33.528Z,4.40
2023-03-21T21:48:02.185Z,4.43
2023-03-21T21:50:30.729Z,4.35
2023-03-21T21:53:04.013Z,4.50
2023-03-21T21:55:33.191Z,4.47
2023-03-21T21:58:02.476Z,4.35
2023-03-21T22:00:34.122Z,4.57
2023-03-21T22:03:03.069Z,5.15
2023-03-21T22:05:32.105Z,5.57
2023-03-21T22:08:00.601Z,4.95
2023-03-21T22:10:29.206Z,3.97
2023-03-21T22:12:57.547Z,5.32
2023-03-21T22:15:26.641Z,4.50
2023-03-21T22:17:56.436Z,4.53
2023-03-21T22:20:24.811Z,4.22
2023-03-21T22:22:56.559Z,4.03
2023-03-21T22:25:25.072Z,3.90
2023-03-21T22:27:55.831Z,4.47
2023-03-21T22:30:24.693Z,3.97
2023-03-21T22:33:06.524Z,4.00
2023-03-21T22:35:39.070Z,4.10
2023-03-21T22:38:07.517Z,5.20
2023-03-21T22:40:36.100Z,3.72
2023-03-21T22:43:04.901Z,4.38
2023-03-21T22:45:34.808Z,4.80
2023-03-21T22:48:03.486Z,4.72
2023-03-21T22:50:32.016Z,4.38
2023-03-21T22:53:01.836Z,4.28
2023-03-21T22:55:30.502Z,4.68
2023-03-21T22:57:59.258Z,4.57
2023-03-21T23:00:28.105Z,4.47
2023-03-21T23:02:57.178Z,4.40
2023-03-21T23:05:25.709Z,4.95
2023-03-21T23:07:54.134Z,4.97
2023-03-21T23:10:24.263Z,3.80
2023-03-21T23:12:52.735Z,4.00
2023-03-21T23:15:21.196Z,5.60
2023-03-21T23:17:49.724Z,3.78
2023-03-21T23:20:18.308Z,4.45
2023-03-21T23:22:46.800Z,4.55
2023-03-21T23:25:15.262Z,3.80
2023-03-21T23:27:45.073Z,5.10
2023-03-21T23:30:13.730Z,4.47
2023-03-21T23:32:42.397Z,4.07
2023-03-21T23:35:11.511Z,4.60
2023-03-21T23:37:42.343Z,4.40
2023-03-21T23:40:12.537Z,3.97
2023-03-21T23:42:41.198Z,4.93
2023-03-21T23:45:11.974Z,4.47
2023-03-21T23:47:40.520Z,4.25
2023-03-21T23:50:10.292Z,4.50
2023-03-21T23:52:41.360Z,4.28
2023-03-21T23:55:10.300Z,4.20
2023-03-21T23:57:41.821Z,3.78
